This is the latest recevied weather packets stored in our database for station/object W7TRD. If no packets are shown the sender has not sent any weather packets the latest 10 day(s).
| Time | Temp. | Humidity | Pressure | Rain* | Wind** | Luminosity | Snow |
|---|---|---|---|---|---|---|---|
| 1777478397 | 11.67° C | 72% | 1025.9 hPa | 0 mm | - | 280 W/m² | - |
| 1777478094 | 11.11° C | 74% | 1025.8 hPa | 0 mm | - | 234 W/m² | - |
| 1777477790 | 11.11° C | 74% | 1025.8 hPa | 0 mm | - | 72 W/m² | - |
| 1777477486 | 10.56° C | 75% | 1025.8 hPa | 0 mm | - | 69 W/m² | - |
| 1777477183 | 11.11° C | 74% | 1026 hPa | 0 mm | - | 70 W/m² | - |
| 1777476879 | 11.11° C | 73% | 1025.9 hPa | 0 mm | - | 277 W/m² | - |
| 1777476578 | 11.11° C | 76% | 1026.1 hPa | 0 mm | - | 64 W/m² | - |
| 1777476273 | 10.56° C | 75% | 1025.9 hPa | 0 mm | - | 249 W/m² | - |
| 1777475969 | 10° C | 76% | 1026 hPa | 0 mm | - | 63 W/m² | - |
| 1777475666 | 10° C | 77% | 1026 hPa | 0 mm | - | 212 W/m² | - |
| 1777475362 | 10° C | 75% | 1025.8 hPa | 0 mm | - | 202 W/m² | - |
| 1777475057 | 10° C | 76% | 1026 hPa | 0 mm | - | 186 W/m² | - |
| 1777474754 | 10° C | 77% | 1026 hPa | 0 mm | - | 151 W/m² | - |
| 1777474450 | 10° C | 76% | 1025.9 hPa | 0 mm | - | 122 W/m² | - |
| 1777474147 | 10° C | 76% | 1025.9 hPa | 0 mm | - | 104 W/m² | - |
| 1777473844 | 9.44° C | 78% | 1026.1 hPa | 0 mm | - | 92 W/m² | - |
| 1777473541 | 8.89° C | 79% | 1026 hPa | 0 mm | - | 82 W/m² | - |
| 1777473236 | 8.33° C | 81% | 1025.9 hPa | 0 mm | - | 74 W/m² | - |
| 1777472933 | 7.78° C | 83% | 1025.8 hPa | 0 mm | - | 66 W/m² | - |
| 1777472630 | 7.78° C | 82% | 1025.8 hPa | 0 mm | - | 60 W/m² | - |
| 1777472327 | 8.33° C | 79% | 1025.8 hPa | 0 mm | - | 55 W/m² | - |
| 1777472024 | 7.78° C | 81% | 1025.9 hPa | 0 mm | - | 50 W/m² | - |
| 1777471719 | 6.67° C | 91% | 1025.8 hPa | 0 mm | - | 46 W/m² | - |
| 1777471416 | 5.56° C | 96% | 1025.9 hPa | 0 mm | - | 41 W/m² | - |
| 1777471113 | 5.56° C | 97% | 1026.1 hPa | 0 mm | - | 37 W/m² | - |
* Rain latest hour (hover to see other rain measurements)
** Current wind speed in m/s (hover to see current wind gust speed)